Time;durP1;ratioP1;P1;durP2;ratioP2;P2;SDS_P1;SDS_P2;PMS_P1;PMS_P2;Temp;Humidity;BMP_temperature;BMP_pressure;BME280_temperature;BME280_humidity;BME280_pressure;Samples;Min_cycle;Max_cycle;Signal;HPM_P1;HPM_P2
2022/05/05 00:01:21;;;;;;;212.02;21.10;;;2.60;99.90;;;;;;5051875;28;20434;-81
2022/05/05 00:03:48;;;;;;;287.25;38.13;;;2.70;99.90;;;;;;5072214;28;20389;-81
2022/05/05 00:06:16;;;;;;;816.60;89.30;;;2.70;99.90;;;;;;5073781;28;20491;-82
2022/05/05 00:08:43;;;;;;;421.30;41.78;;;2.60;99.90;;;;;;5055762;28;20395;-81
2022/05/05 00:16:43;;;;;;;891.08;84.35;;;2.60;99.90;;;;;;5055952;28;20390;-82
2022/05/05 00:19:10;;;;;;;229.77;24.33;;;2.60;99.90;;;;;;5073647;28;20413;-81
2022/05/05 00:21:38;;;;;;;276.95;28.90;;;2.60;99.90;;;;;;5073440;28;20783;-81
2022/05/05 00:24:07;;;;;;;612.42;54.38;;;2.50;99.90;;;;;;5073574;28;20435;-82
2022/05/05 00:26:35;;;;;;;212.77;26.25;;;2.50;99.90;;;;;;5071623;28;20413;-81
2022/05/05 00:29:02;;;;;;;392.55;34.42;;;2.50;99.90;;;;;;5072197;28;20396;-81
2022/05/05 00:31:30;;;;;;;218.87;19.47;;;2.40;99.90;;;;;;5072223;28;20397;-81
2022/05/05 00:33:58;;;;;;;125.53;11.60;;;2.40;99.90;;;;;;5055562;28;20402;-82
2022/05/05 00:36:25;;;;;;;865.10;107.53;;;2.50;99.90;;;;;;5055633;28;20385;-82
2022/05/05 00:38:53;;;;;;;717.58;67.95;;;2.50;99.90;;;;;;5073255;28;20386;-81
2022/05/05 00:41:21;;;;;;;253.93;18.80;;;2.60;99.90;;;;;;5071811;28;20410;-81
2022/05/05 00:43:48;;;;;;;294.48;27.17;;;2.50;99.90;;;;;;5073203;28;20792;-81
2022/05/05 00:46:16;;;;;;;28.60;2.78;;;2.50;99.90;;;;;;5073197;28;21014;-82
2022/05/05 00:48:43;;;;;;;446.33;49.13;;;2.50;99.90;;;;;;4997240;28;2163836;-82
2022/05/05 00:51:11;;;;;;;286.67;31.10;;;2.50;99.90;;;;;;5037368;28;20415;-81
2022/05/05 00:53:39;;;;;;;342.60;30.80;;;2.60;99.90;;;;;;5054225;28;20464;-82
2022/05/05 00:56:15;;;;;;;310.05;28.25;;;2.60;99.90;;;;;;5054231;28;20416;-81
2022/05/05 00:58:44;;;;;;;632.63;55.65;;;2.60;99.90;;;;;;5054115;28;20865;-82
2022/05/05 01:01:17;;;;;;;346.65;37.53;;;2.60;99.90;;;;;;5054068;28;20429;-82
2022/05/05 01:03:45;;;;;;;44.10;5.18;;;2.60;99.90;;;;;;5036241;28;20897;-83
2022/05/05 01:06:16;;;;;;;320.88;33.58;;;2.50;99.90;;;;;;5036211;28;20383;-82
2022/05/05 01:08:44;;;;;;;469.90;50.60;;;2.60;99.90;;;;;;5052909;28;20804;-82
2022/05/05 01:11:12;;;;;;;239.55;25.35;;;2.50;99.90;;;;;;5053903;28;20414;-82
2022/05/05 01:13:41;;;;;;;200.43;25.90;;;2.60;99.90;;;;;;5053453;28;20392;-82
2022/05/05 01:16:10;;;;;;;326.33;37.40;;;2.50;99.90;;;;;;5035956;28;20380;-81
2022/05/05 01:18:39;;;;;;;482.20;57.10;;;2.50;99.90;;;;;;5053812;28;20388;-82
2022/05/05 01:21:10;;;;;;;107.55;11.13;;;2.50;99.90;;;;;;5053822;28;20443;-82
2022/05/05 01:23:38;;;;;;;253.60;21.85;;;2.50;99.90;;;;;;5053774;28;20467;-81
2022/05/05 01:28:53;;;;;;;134.18;10.07;;;2.60;99.90;;;;;;5073701;28;20382;-81
2022/05/05 01:31:20;;;;;;;275.25;31.05;;;2.50;99.90;;;;;;5073590;28;20386;-80
2022/05/05 01:33:49;;;;;;;137.90;11.88;;;2.60;99.90;;;;;;5073607;28;20390;-82
2022/05/05 01:36:16;;;;;;;295.67;28.50;;;2.50;99.90;;;;;;5073505;28;20860;-81
2022/05/05 01:38:44;;;;;;;256.40;21.83;;;2.50;99.90;;;;;;5073402;28;20402;-82
2022/05/05 01:41:13;;;;;;;192.48;28.25;;;2.50;99.90;;;;;;5072120;28;20398;-83
2022/05/05 01:43:44;;;;;;;208.30;22.70;;;2.50;99.90;;;;;;5073659;28;20389;-82
2022/05/05 01:46:13;;;;;;;221.03;25.60;;;2.60;99.90;;;;;;5073351;28;20393;-82
2022/05/05 01:48:41;;;;;;;3.45;0.60;;;2.60;99.90;;;;;;5072628;28;20432;-83
2022/05/05 01:51:09;;;;;;;347.80;38.67;;;2.50;99.90;;;;;;5073275;28;20465;-81
2022/05/05 01:53:37;;;;;;;152.43;12.90;;;2.50;99.90;;;;;;5073148;28;20394;-81
2022/05/05 01:56:12;;;;;;;194.93;20.20;;;2.40;99.90;;;;;;5073165;28;20469;-82
2022/05/05 01:58:44;;;;;;;164.45;16.30;;;2.40;99.90;;;;;;5072962;28;20394;-82
2022/05/05 02:01:12;;;;;;;108.22;8.00;;;2.40;99.90;;;;;;5055128;28;20375;-82
2022/05/05 02:03:40;;;;;;;204.68;25.88;;;2.40;99.90;;;;;;5072956;28;20851;-81
2022/05/05 02:06:08;;;;;;;25.53;2.53;;;2.40;99.90;;;;;;5072953;28;20385;-82
2022/05/05 02:08:37;;;;;;;146.48;14.35;;;2.40;99.90;;;;;;5054679;28;20387;-83
2022/05/05 02:11:04;;;;;;;166.10;19.60;;;2.30;99.90;;;;;;5071600;28;20410;-82
2022/05/05 02:13:32;;;;;;;36.35;3.00;;;2.40;99.90;;;;;;5071494;28;20452;-82
2022/05/05 02:16:00;;;;;;;302.95;29.00;;;2.30;99.90;;;;;;5072679;28;20384;-82
2022/05/05 02:18:27;;;;;;;12.30;1.20;;;2.40;99.90;;;;;;5072744;28;20474;-81
2022/05/05 02:20:55;;;;;;;245.70;27.20;;;2.40;99.90;;;;;;5054718;28;20382;-81
2022/05/05 02:23:23;;;;;;;159.30;16.07;;;2.40;99.90;;;;;;5054500;28;20406;-82
2022/05/05 02:25:50;;;;;;;94.75;9.95;;;2.40;99.90;;;;;;5071808;28;20440;-81
2022/05/05 02:28:18;;;;;;;288.83;29.07;;;2.50;99.90;;;;;;5066173;28;20387;-82
2022/05/05 02:30:45;;;;;;;343.58;30.75;;;2.50;99.90;;;;;;5073057;28;20789;-82
2022/05/05 02:33:13;;;;;;;102.68;7.82;;;2.50;99.90;;;;;;5092741;28;20754;-82
2022/05/05 02:35:40;;;;;;;143.30;17.92;;;2.50;99.90;;;;;;5083419;28;20410;-81
2022/05/05 02:40:54;;;;;;;169.47;15.20;;;2.40;99.90;;;;;;5074948;28;20446;-82
2022/05/05 02:43:21;;;;;;;129.07;14.38;;;2.50;99.90;;;;;;5092417;28;20465;-82
2022/05/05 02:45:49;;;;;;;278.83;29.80;;;2.50;99.90;;;;;;5090874;28;20431;-81
2022/05/05 02:48:17;;;;;;;258.73;27.95;;;2.40;99.90;;;;;;5054810;28;20386;-82
2022/05/05 02:50:44;;;;;;;44.10;4.30;;;2.40;99.90;;;;;;5091205;28;20405;-82
2022/05/05 02:55:57;;;;;;;2.58;0.55;;;2.50;99.90;;;;;;5092008;28;20388;-81
2022/05/05 02:58:27;;;;;;;535.03;60.90;;;2.50;99.90;;;;;;5091932;28;20392;-82
2022/05/05 03:00:54;;;;;;;242.48;27.50;;;2.50;99.90;;;;;;5084081;28;20425;-82
2022/05/05 03:03:22;;;;;;;156.05;12.80;;;2.50;99.90;;;;;;5071778;28;20398;-83
2022/05/05 03:05:50;;;;;;;248.13;25.20;;;2.50;99.90;;;;;;5071827;28;20435;-82
2022/05/05 03:08:17;;;;;;;76.55;6.32;;;2.60;99.90;;;;;;5071795;28;20410;-82
2022/05/05 03:10:45;;;;;;;10.40;1.50;;;2.60;99.90;;;;;;5070882;28;20485;-82
2022/05/05 03:13:12;;;;;;;62.15;6.07;;;2.50;99.90;;;;;;5071666;28;20389;-81
2022/05/05 03:15:40;;;;;;;126.93;10.63;;;2.60;99.90;;;;;;5071588;28;20798;-82
2022/05/05 03:18:07;;;;;;;187.40;16.45;;;2.60;99.90;;;;;;5071527;28;20390;-82
2022/05/05 03:20:35;;;;;;;3.75;0.80;;;2.60;99.90;;;;;;5053908;28;20890;-83
2022/05/05 03:23:03;;;;;;;208.05;21.05;;;2.60;99.90;;;;;;5071518;28;20394;-83
2022/05/05 03:25:31;;;;;;;25.70;2.70;;;2.60;99.90;;;;;;5071661;28;20473;-82
2022/05/05 03:27:58;;;;;;;3.63;0.70;;;2.60;99.90;;;;;;5043710;28;20393;-82
2022/05/05 03:30:25;;;;;;;75.78;8.15;;;2.60;99.90;;;;;;5070397;28;20406;-82
2022/05/05 03:32:53;;;;;;;55.03;4.68;;;2.70;99.90;;;;;;5047718;28;20400;-82
2022/05/05 03:35:20;;;;;;;84.30;7.70;;;2.70;99.90;;;;;;5038033;28;20396;-82
2022/05/05 03:37:48;;;;;;;6.60;1.08;;;2.70;99.90;;;;;;5069104;28;20783;-83
2022/05/05 03:40:16;;;;;;;5.95;1.02;;;2.70;99.90;;;;;;5070091;28;20418;-83
2022/05/05 03:42:43;;;;;;;1.38;0.70;;;2.60;99.90;;;;;;5072006;28;20398;-82
2022/05/05 03:45:11;;;;;;;273.67;27.35;;;2.70;99.90;;;;;;5070123;28;20477;-82
2022/05/05 03:47:38;;;;;;;92.93;9.30;;;2.70;99.90;;;;;;5031937;28;20389;-82
2022/05/05 03:50:07;;;;;;;1.98;0.60;;;2.70;99.90;;;;;;5045695;28;20402;-82
2022/05/05 03:52:34;;;;;;;1.50;0.60;;;2.80;99.90;;;;;;5051409;28;20842;-83
2022/05/05 03:55:02;;;;;;;339.92;53.33;;;2.70;99.90;;;;;;5056215;28;20894;-82
2022/05/05 03:57:29;;;;;;;1.70;0.63;;;2.70;99.90;;;;;;5058418;28;20426;-83
2022/05/05 03:59:56;;;;;;;74.53;6.50;;;2.70;99.90;;;;;;5051251;28;20411;-82
2022/05/05 04:02:24;;;;;;;1.73;0.50;;;2.80;99.90;;;;;;5051592;28;20903;-82
2022/05/05 04:04:52;;;;;;;1.83;0.65;;;2.80;99.90;;;;;;5038638;28;20758;-83
2022/05/05 04:07:19;;;;;;;3.60;0.90;;;2.70;99.90;;;;;;5044314;28;20445;-82
2022/05/05 04:09:47;;;;;;;2.22;0.70;;;2.80;99.90;;;;;;5051317;28;20387;-82
2022/05/05 04:12:14;;;;;;;202.27;35.15;;;2.80;99.90;;;;;;5051208;28;20392;-82
2022/05/05 04:14:42;;;;;;;141.17;24.40;;;2.80;99.90;;;;;;5051207;28;20494;-83
2022/05/05 04:17:09;;;;;;;1.80;0.60;;;2.80;99.90;;;;;;5049976;28;20388;-83
2022/05/05 04:19:39;;;;;;;5.70;0.70;;;2.80;99.90;;;;;;5066224;28;20745;-82
2022/05/05 04:22:06;;;;;;;204.48;26.00;;;2.80;99.90;;;;;;5051004;28;20407;-82
2022/05/05 04:24:33;;;;;;;261.25;31.52;;;2.90;99.90;;;;;;5066229;28;20442;-82
2022/05/05 04:27:02;;;;;;;2.85;0.70;;;2.90;99.90;;;;;;5051234;28;20387;-82
2022/05/05 04:29:29;;;;;;;4.07;0.85;;;2.90;99.90;;;;;;5049378;28;20904;-83
2022/05/05 04:31:57;;;;;;;9.07;1.60;;;2.90;99.90;;;;;;5049510;28;20383;-83
2022/05/05 04:34:24;;;;;;;11.63;1.25;;;2.90;99.90;;;;;;5050839;28;20391;-82
2022/05/05 04:36:53;;;;;;;58.80;7.00;;;2.90;99.90;;;;;;5034906;28;20380;-83
2022/05/05 04:39:20;;;;;;;495.80;75.55;;;3.00;99.90;;;;;;5049639;28;20857;-84
2022/05/05 04:41:48;;;;;;;155.35;17.25;;;3.00;99.90;;;;;;5050677;28;20939;-83
2022/05/05 04:44:15;;;;;;;364.98;61.72;;;3.10;99.90;;;;;;5050781;28;20750;-82
2022/05/05 04:46:43;;;;;;;31.60;5.22;;;3.20;99.90;;;;;;5066035;28;20438;-82
2022/05/05 04:49:11;;;;;;;132.65;13.65;;;3.20;99.90;;;;;;5066905;28;20470;-82
2022/05/05 04:51:38;;;;;;;340.50;36.78;;;3.20;99.90;;;;;;5052397;28;20399;-82
2022/05/05 04:54:06;;;;;;;10.30;2.03;;;3.30;99.90;;;;;;5069582;28;20394;-82
2022/05/05 04:56:33;;;;;;;58.67;5.13;;;3.30;99.90;;;;;;5054179;28;20398;-83
2022/05/05 04:59:01;;;;;;;457.83;47.50;;;3.30;99.90;;;;;;5069303;28;20403;-82
2022/05/05 05:01:28;;;;;;;14.90;3.42;;;3.40;99.90;;;;;;5069363;28;20387;-82
2022/05/05 05:03:56;;;;;;;509.80;66.70;;;3.40;99.90;;;;;;5066564;28;20798;-82
2022/05/05 05:06:24;;;;;;;31.83;4.05;;;3.40;99.90;;;;;;5052944;28;20667;-82
2022/05/05 05:08:51;;;;;;;59.78;11.50;;;3.40;99.90;;;;;;5048755;28;20741;-82
2022/05/05 05:11:19;;;;;;;722.20;72.90;;;3.40;99.90;;;;;;5054243;28;20384;-82
2022/05/05 05:13:47;;;;;;;117.27;12.90;;;3.50;99.90;;;;;;5052728;28;20830;-82
2022/05/05 05:16:15;;;;;;;152.38;14.90;;;3.50;99.90;;;;;;5068792;28;20384;-83
2022/05/05 05:19:03;;;;;;;10.23;4.43;;;3.60;99.90;;;;;;5039313;28;20391;-83
2022/05/05 05:21:31;;;;;;;11.50;3.90;;;3.60;99.90;;;;;;5068784;28;20422;-83
2022/05/05 05:23:59;;;;;;;308.98;34.17;;;3.60;99.90;;;;;;5053647;28;20951;-83
2022/05/05 05:26:26;;;;;;;167.35;21.08;;;3.60;99.90;;;;;;5053811;28;20399;-82
2022/05/05 05:28:54;;;;;;;184.48;22.80;;;3.60;99.90;;;;;;5052516;28;20384;-82
2022/05/05 05:31:22;;;;;;;82.95;10.45;;;3.70;99.90;;;;;;5051988;28;20384;-83
2022/05/05 05:33:50;;;;;;;161.88;32.42;;;3.70;99.90;;;;;;5053595;28;20396;-82
2022/05/05 05:36:18;;;;;;;19.30;6.25;;;3.70;99.90;;;;;;5053462;28;20796;-82
2022/05/05 05:38:46;;;;;;;119.80;18.92;;;3.80;99.90;;;;;;5068631;28;20415;-82
2022/05/05 05:41:14;;;;;;;530.40;71.00;;;3.80;99.90;;;;;;5053384;28;20395;-82
2022/05/05 05:43:41;;;;;;;636.60;61.45;;;3.90;99.90;;;;;;5066628;28;20399;-82
2022/05/05 05:46:09;;;;;;;397.30;45.63;;;3.90;99.90;;;;;;5050844;28;20419;-81
2022/05/05 05:48:39;;;;;;;417.25;35.88;;;4.00;99.90;;;;;;5051677;28;20403;-82
2022/05/05 05:51:07;;;;;;;633.72;44.92;;;4.10;99.90;;;;;;5053586;28;20407;-82
2022/05/05 05:53:34;;;;;;;16.07;5.83;;;4.30;99.90;;;;;;5051596;28;20921;-83
2022/05/05 05:56:02;;;;;;;446.15;45.92;;;4.30;99.90;;;;;;5053220;28;20395;-82
2022/05/05 05:58:30;;;;;;;262.45;22.17;;;4.30;99.90;;;;;;5053166;28;20387;-82
2022/05/05 06:00:57;;;;;;;140.57;24.27;;;4.30;99.90;;;;;;5050616;28;20388;-82
2022/05/05 06:06:11;;;;;;;1105.05;81.07;;;4.30;99.90;;;;;;5052996;28;20391;-82
2022/05/05 06:08:38;;;;;;;1055.80;90.05;;;4.30;99.90;;;;;;5051493;28;20792;-82
2022/05/05 06:11:06;;;;;;;133.53;16.60;;;4.40;99.90;;;;;;5052958;28;20428;-82
2022/05/05 06:13:33;;;;;;;261.90;25.08;;;4.40;99.90;;;;;;5052824;28;20461;-82
2022/05/05 06:16:01;;;;;;;282.40;33.75;;;4.40;99.90;;;;;;5052778;28;20391;-81
2022/05/05 06:18:28;;;;;;;313.15;36.17;;;4.40;99.90;;;;;;5052778;28;20784;-82
2022/05/05 06:20:56;;;;;;;611.20;87.10;;;4.50;99.90;;;;;;5052752;28;20420;-82
2022/05/05 06:23:23;;;;;;;11.02;4.07;;;4.60;99.90;;;;;;5051081;28;20399;-82
2022/05/05 06:25:51;;;;;;;70.32;8.98;;;4.60;99.90;;;;;;5068090;28;20429;-81
2022/05/05 06:28:18;;;;;;;114.67;12.50;;;4.60;99.90;;;;;;5052709;28;20392;-81
2022/05/05 06:30:45;;;;;;;222.38;22.48;;;4.70;99.90;;;;;;5067834;28;20388;-82
2022/05/05 06:33:13;;;;;;;61.28;13.30;;;4.70;99.90;;;;;;5050839;28;20757;-82
2022/05/05 06:35:40;;;;;;;189.57;37.00;;;4.80;99.90;;;;;;5067696;28;20443;-82
2022/05/05 06:38:08;;;;;;;14.10;4.40;;;4.90;99.90;;;;;;5068075;28;20388;-82
2022/05/05 06:40:35;;;;;;;449.27;48.80;;;4.80;99.90;;;;;;5067731;28;20453;-83
2022/05/05 06:43:03;;;;;;;22.08;4.88;;;4.90;99.90;;;;;;5067515;28;20422;-82
2022/05/05 06:45:31;;;;;;;370.52;34.10;;;5.10;99.90;;;;;;5052221;28;20387;-83
2022/05/05 06:47:58;;;;;;;267.90;29.95;;;5.10;99.90;;;;;;5059076;28;20469;-82
2022/05/05 06:50:26;;;;;;;153.02;12.80;;;5.20;99.90;;;;;;5072035;28;20414;-82
2022/05/05 06:52:53;;;;;;;738.63;56.10;;;5.40;99.90;;;;;;5072086;28;20405;-82
2022/05/05 06:55:21;;;;;;;516.92;49.85;;;5.50;99.90;;;;;;5071941;28;20386;-82
2022/05/05 06:57:48;;;;;;;1100.57;71.47;;;5.80;99.90;;;;;;5071932;28;20406;-82
2022/05/05 07:00:17;;;;;;;1785.70;124.57;;;5.90;99.90;;;;;;5053931;28;20607;-82
2022/05/05 07:02:44;;;;;;;1362.07;95.03;;;6.40;99.90;;;;;;5071682;28;20463;-81
2022/05/05 07:05:24;;;;;;;496.02;36.08;;;6.60;99.90;;;;;;5070578;28;20390;-83
2022/05/05 07:07:52;;;;;;;1272.10;96.88;;;6.40;99.90;;;;;;5071782;28;20381;-83
2022/05/05 07:13:07;;;;;;;583.33;45.90;;;7.00;99.90;;;;;;5071332;28;20393;-82
2022/05/05 07:15:37;;;;;;;100.68;7.75;;;7.00;99.90;;;;;;5037329;28;20386;-81
2022/05/05 07:18:04;;;;;;;690.63;71.30;;;7.20;99.90;;;;;;5070338;28;20389;-82
2022/05/05 07:20:32;;;;;;;1908.25;136.05;;;7.20;99.90;;;;;;5053296;28;20416;-82
2022/05/05 07:23:00;;;;;;;1144.77;56.40;;;7.50;99.90;;;;;;5071501;28;20489;-83
2022/05/05 07:25:28;;;;;;;647.20;37.72;;;7.70;99.90;;;;;;5053338;28;20382;-83
2022/05/05 07:27:56;;;;;;;947.13;67.55;;;7.70;99.90;;;;;;5070196;28;20386;-84
2022/05/05 07:30:23;;;;;;;1999.90;108.75;;;7.70;99.90;;;;;;5071705;28;20867;-83
2022/05/05 07:32:51;;;;;;;602.88;40.08;;;7.80;99.90;;;;;;5055430;28;20386;-84
2022/05/05 07:35:18;;;;;;;929.90;54.17;;;7.80;99.50;;;;;;5071493;28;20879;-82
2022/05/05 07:37:46;;;;;;;438.60;28.13;;;7.90;99.80;;;;;;5071708;28;20479;-83
2022/05/05 07:40:13;;;;;;;1306.73;77.67;;;7.90;99.90;;;;;;5070324;28;20883;-83
2022/05/05 07:42:42;;;;;;;411.85;39.83;;;8.20;99.90;;;;;;5053380;28;20451;-83
2022/05/05 07:45:10;;;;;;;1749.00;95.35;;;8.10;99.70;;;;;;5053485;28;20397;-84
2022/05/05 07:47:38;;;;;;;894.30;69.30;;;8.30;99.90;;;;;;5071252;28;20394;-84
2022/05/05 07:50:06;;;;;;;232.98;17.10;;;8.40;99.10;;;;;;5071493;28;20417;-84
2022/05/05 07:52:34;;;;;;;1880.22;165.98;;;8.20;99.50;;;;;;5070084;28;20738;-83
2022/05/05 07:55:03;;;;;;;1999.90;134.43;;;8.30;98.10;;;;;;5053332;28;20471;-82
2022/05/05 07:57:31;;;;;;;458.75;37.58;;;8.50;98.50;;;;;;5071327;28;20483;-83
2022/05/05 07:59:58;;;;;;;1026.60;72.97;;;8.50;98.50;;;;;;5036844;28;20806;-83
2022/05/05 08:02:26;;;;;;;363.08;32.05;;;8.40;97.70;;;;;;5069936;28;20394;-83
2022/05/05 08:04:54;;;;;;;1999.90;130.82;;;8.50;98.50;;;;;;5071195;28;20964;-84
2022/05/05 08:07:22;;;;;;;1124.63;58.22;;;8.70;97.80;;;;;;5053406;28;20394;-83
2022/05/05 08:09:49;;;;;;;474.35;31.75;;;8.80;97.50;;;;;;5069964;28;20386;-83
2022/05/05 08:12:33;;;;;;;1999.90;99.10;;;8.80;97.30;;;;;;5069826;28;20394;-82
2022/05/05 08:15:04;;;;;;;1101.65;65.55;;;9.00;95.80;;;;;;5071068;28;20919;-83
2022/05/05 08:17:33;;;;;;;1666.10;103.95;;;8.90;96.50;;;;;;5069933;28;20477;-83
2022/05/05 08:20:05;;;;;;;1823.68;108.45;;;9.10;95.30;;;;;;5069829;28;20382;-83
2022/05/05 08:22:33;;;;;;;1851.80;89.60;;;9.20;97.20;;;;;;5069766;28;20439;-82
2022/05/05 08:30:33;;;;;;;467.80;41.50;;;9.50;94.60;;;;;;5074869;28;20853;-83
2022/05/05 08:33:00;;;;;;;1556.30;90.38;;;9.60;94.10;;;;;;5073565;28;20389;-83
2022/05/05 08:35:28;;;;;;;1763.30;100.05;;;9.60;94.90;;;;;;5056976;28;20418;-83
2022/05/05 08:37:56;;;;;;;1344.03;113.93;;;9.70;96.00;;;;;;5056593;28;20913;-83
2022/05/05 08:40:26;;;;;;;1795.00;90.67;;;9.80;95.30;;;;;;5057019;28;20386;-83
2022/05/05 08:42:54;;;;;;;1399.22;76.60;;;9.80;92.10;;;;;;5053368;28;20380;-84
2022/05/05 08:45:22;;;;;;;1744.80;128.23;;;9.80;95.00;;;;;;5061371;28;20389;-83
2022/05/05 08:47:53;;;;;;;360.50;26.40;;;9.60;93.30;;;;;;5074343;28;20785;-83
2022/05/05 08:50:23;;;;;;;795.97;51.83;;;9.60;94.40;;;;;;5074608;28;20473;-83
2022/05/05 08:52:51;;;;;;;1946.47;98.87;;;9.70;93.20;;;;;;5074437;28;20386;-82
2022/05/05 08:55:20;;;;;;;564.15;29.10;;;9.70;93.00;;;;;;5074453;28;20382;-83
2022/05/05 08:57:48;;;;;;;421.92;29.20;;;9.70;95.30;;;;;;5074336;28;20382;-83
2022/05/05 09:00:16;;;;;;;991.58;56.05;;;9.80;92.80;;;;;;5056473;28;20795;-83
2022/05/05 09:02:44;;;;;;;1906.40;100.27;;;9.70;92.70;;;;;;5074255;28;20386;-83
2022/05/05 09:05:12;;;;;;;635.60;47.30;;;9.80;92.80;;;;;;5074214;28;20398;-83
2022/05/05 09:07:50;;;;;;;787.90;52.72;;;9.80;93.00;;;;;;5056396;28;20394;-83
2022/05/05 09:10:20;;;;;;;782.33;49.47;;;10.00;93.90;;;;;;5074164;28;20483;-83
2022/05/05 09:12:58;;;;;;;1243.85;55.40;;;10.30;93.60;;;;;;5074123;28;20860;-83
2022/05/05 09:15:36;;;;;;;1999.90;101.13;;;10.50;92.70;;;;;;5074096;28;20435;-82
2022/05/05 09:18:13;;;;;;;1012.72;69.65;;;10.40;91.00;;;;;;5074062;28;20852;-83
2022/05/05 09:20:43;;;;;;;1945.90;96.47;;;10.20;91.20;;;;;;5072600;28;20396;-83
2022/05/05 09:23:30;;;;;;;312.05;12.48;;;10.40;91.50;;;;;;5073927;28;20496;-84
2022/05/05 09:25:58;;;;;;;1708.10;82.45;;;10.40;93.30;;;;;;5073910;28;20915;-83
2022/05/05 09:28:30;;;;;;;620.22;46.15;;;10.60;90.90;;;;;;5055492;28;20386;-83
2022/05/05 09:31:10;;;;;;;1970.82;105.32;;;10.50;92.20;;;;;;5072450;28;20473;-83
2022/05/05 09:33:44;;;;;;;288.90;21.10;;;10.30;91.80;;;;;;5074153;28;20844;-83
2022/05/05 09:36:16;;;;;;;1620.33;93.53;;;10.30;93.40;;;;;;5073507;28;20876;-83
2022/05/05 09:38:58;;;;;;;1550.93;74.35;;;10.40;92.60;;;;;;5073577;28;20427;-83
2022/05/05 09:41:28;;;;;;;678.30;52.17;;;10.30;91.30;;;;;;5072293;28;20394;-83
2022/05/05 09:44:00;;;;;;;1999.90;136.98;;;10.20;92.40;;;;;;5073567;28;20405;-83
2022/05/05 09:46:28;;;;;;;429.60;34.72;;;10.30;90.80;;;;;;5072882;28;20426;-83
2022/05/05 09:49:07;;;;;;;884.23;56.37;;;10.50;92.00;;;;;;5075448;28;20385;-84
2022/05/05 09:57:44;;;;;;;237.02;19.00;;;10.90;91.10;;;;;;5073192;28;20883;-81
2022/05/05 10:00:42;;;;;;;1125.60;62.10;;;10.80;90.40;;;;;;5053480;28;20853;-82
2022/05/05 10:06:04;;;;;;;1096.78;63.45;;;11.20;94.40;;;;;;5055150;28;20871;-82
2022/05/05 10:08:40;;;;;;;237.48;33.50;;;11.40;90.90;;;;;;5045823;28;20384;-83
2022/05/05 10:11:08;;;;;;;835.95;47.97;;;11.40;92.90;;;;;;5074867;28;20381;-83
2022/05/05 10:13:37;;;;;;;249.88;17.40;;;11.40;91.70;;;;;;5093288;28;20558;-83
2022/05/05 10:16:06;;;;;;;542.28;32.75;;;11.40;92.40;;;;;;5092854;28;20398;-82
2022/05/05 10:18:37;;;;;;;1821.47;102.55;;;11.60;93.60;;;;;;5074523;28;20877;-82
2022/05/05 10:21:08;;;;;;;1037.65;78.20;;;12.00;90.70;;;;;;5092559;28;20441;-82
2022/05/05 10:23:45;;;;;;;88.50;7.30;;;11.80;89.80;;;;;;5077223;28;20394;-83
2022/05/05 10:26:13;;;;;;;127.03;9.73;;;11.70;89.70;;;;;;5072575;28;20864;-83
2022/05/05 10:28:47;;;;;;;848.80;58.37;;;11.50;90.40;;;;;;5060620;28;20405;-83
2022/05/05 10:31:30;;;;;;;1351.47;69.20;;;11.70;87.30;;;;;;5061391;28;20386;-83
2022/05/05 10:34:06;;;;;;;1832.53;87.77;;;11.90;90.00;;;;;;5042880;28;20383;-82
2022/05/05 10:36:36;;;;;;;912.35;51.72;;;12.10;83.80;;;;;;5055462;28;20388;-82
2022/05/05 10:39:23;;;;;;;62.77;4.67;;;12.10;87.70;;;;;;5071061;28;20390;-83
2022/05/05 10:41:51;;;;;;;183.88;15.35;;;12.00;85.00;;;;;;5054003;28;20799;-83
2022/05/05 10:44:20;;;;;;;537.55;27.58;;;12.10;90.00;;;;;;5069187;28;20403;-82
2022/05/05 10:46:51;;;;;;;343.67;25.85;;;12.10;90.10;;;;;;5064458;28;20382;-83
2022/05/05 10:49:31;;;;;;;312.80;25.95;;;12.20;89.50;;;;;;5056613;28;20449;-83
2022/05/05 10:52:08;;;;;;;740.22;49.92;;;12.10;87.60;;;;;;5033680;28;20382;-82
2022/05/05 10:54:40;;;;;;;426.23;31.07;;;12.00;87.20;;;;;;5073699;28;20455;-83
2022/05/05 10:57:26;;;;;;;526.95;31.65;;;12.20;90.30;;;;;;5028035;28;20451;-83
2022/05/05 11:00:07;;;;;;;1078.72;65.43;;;12.30;86.90;;;;;;5044953;28;20391;-82
2022/05/05 11:02:35;;;;;;;530.42;39.38;;;12.50;87.60;;;;;;5069561;28;20403;-82
2022/05/05 11:05:32;;;;;;;296.60;18.52;;;12.40;87.10;;;;;;5055128;28;20397;-83
2022/05/05 11:08:08;;;;;;;613.70;39.60;;;12.50;89.20;;;;;;5071566;28;20390;-83
2022/05/05 11:10:43;;;;;;;1977.63;143.98;;;12.50;85.70;;;;;;5071276;28;20382;-83
2022/05/05 11:13:36;;;;;;;1348.95;70.57;;;12.30;82.00;;;;;;5070153;28;20404;-82
2022/05/05 11:22:10;;;;;;;679.40;55.60;;;12.70;85.70;;;;;;5071372;28;20473;-82
2022/05/05 11:24:45;;;;;;;880.80;53.40;;;12.60;87.00;;;;;;5071005;28;20408;-83
2022/05/05 11:27:21;;;;;;;185.07;14.30;;;12.70;85.70;;;;;;5071295;28;20484;-82
2022/05/05 11:29:51;;;;;;;174.82;12.45;;;12.80;86.00;;;;;;5071458;28;20390;-84
2022/05/05 11:32:21;;;;;;;799.92;37.47;;;13.00;85.90;;;;;;5070219;28;20456;-82
2022/05/05 11:34:50;;;;;;;439.45;37.50;;;13.00;79.60;;;;;;5069857;28;20416;-82
2022/05/05 11:37:18;;;;;;;262.40;22.85;;;13.10;82.10;;;;;;5063753;28;20392;-82
2022/05/05 11:39:50;;;;;;;30.52;2.60;;;13.10;83.50;;;;;;5051407;28;20442;-83
2022/05/05 11:42:18;;;;;;;198.17;20.43;;;12.90;82.70;;;;;;5066428;28;20782;-84
2022/05/05 11:44:47;;;;;;;243.30;22.35;;;13.10;83.30;;;;;;5051268;28;20400;-83
2022/05/05 11:47:20;;;;;;;188.95;20.23;;;13.20;83.90;;;;;;5052061;28;20807;-83
2022/05/05 11:49:51;;;;;;;1148.85;72.35;;;13.10;84.30;;;;;;5053311;28;20393;-83
2022/05/05 11:52:19;;;;;;;828.42;59.75;;;13.20;82.70;;;;;;5071569;28;20477;-83
2022/05/05 11:54:49;;;;;;;314.63;19.05;;;12.90;80.50;;;;;;5071380;28;20410;-83
2022/05/05 11:57:34;;;;;;;544.25;37.70;;;13.10;86.50;;;;;;5065282;28;20390;-83
2022/05/05 12:02:49;;;;;;;1283.77;64.50;;;13.40;82.40;;;;;;5075159;28;20447;-83
2022/05/05 12:05:18;;;;;;;227.88;20.92;;;13.30;75.70;;;;;;5061858;28;20401;-82
2022/05/05 12:07:46;;;;;;;973.17;66.65;;;13.40;79.60;;;;;;5079937;28;20442;-82
2022/05/05 12:10:15;;;;;;;293.80;18.70;;;13.50;76.60;;;;;;5040621;28;20385;-82
2022/05/05 12:12:50;;;;;;;352.98;17.23;;;13.20;78.20;;;;;;5081174;28;20392;-81
2022/05/05 12:15:20;;;;;;;135.55;12.95;;;13.30;80.50;;;;;;5073637;28;20384;-83
2022/05/05 12:17:50;;;;;;;360.20;27.80;;;13.40;82.10;;;;;;5092050;28;20408;-82
2022/05/05 12:20:20;;;;;;;1999.90;104.50;;;13.80;83.00;;;;;;5074692;28;20382;-81
2022/05/05 12:22:56;;;;;;;1716.85;78.07;;;13.90;78.00;;;;;;5085515;28;20492;-83
2022/05/05 12:25:25;;;;;;;856.15;54.30;;;13.80;77.10;;;;;;5072616;28;20415;-82
2022/05/05 12:27:58;;;;;;;1042.93;45.53;;;13.80;74.90;;;;;;5077203;28;20393;-81
2022/05/05 12:30:32;;;;;;;375.88;26.65;;;13.70;75.00;;;;;;5077706;28;20608;-83
2022/05/05 12:33:02;;;;;;;686.60;50.35;;;13.70;78.70;;;;;;5094805;28;20380;-82
2022/05/05 12:35:43;;;;;;;1233.60;61.63;;;13.60;77.70;;;;;;5094332;28;20394;-83
2022/05/05 12:38:14;;;;;;;162.38;20.80;;;13.40;76.50;;;;;;5077199;28;20797;-82
2022/05/05 12:40:46;;;;;;;466.35;43.80;;;13.30;78.90;;;;;;5094857;28;20870;-83
2022/05/05 12:43:17;;;;;;;339.48;29.40;;;13.60;78.90;;;;;;5094927;28;20380;-82
2022/05/05 12:45:46;;;;;;;1378.45;66.20;;;13.90;81.50;;;;;;5094701;28;20811;-83
2022/05/05 12:48:13;;;;;;;256.25;26.80;;;14.10;81.60;;;;;;5094592;28;20388;-82
2022/05/05 12:50:41;;;;;;;1896.75;96.28;;;14.00;76.90;;;;;;5093479;28;20475;-82
2022/05/05 13:01:38;;;;;;;365.25;27.02;;;14.40;77.60;;;;;;5094578;28;20380;-83
2022/05/05 13:04:09;;;;;;;652.72;38.40;;;14.30;75.00;;;;;;5094372;28;20384;-83
2022/05/05 13:06:38;;;;;;;878.63;66.43;;;14.40;73.90;;;;;;5094372;28;20734;-82
2022/05/05 13:09:08;;;;;;;206.40;17.02;;;14.20;71.70;;;;;;5076473;28;20420;-83
2022/05/05 13:11:36;;;;;;;642.85;43.25;;;14.30;76.00;;;;;;5079026;28;20494;-85
2022/05/05 13:14:05;;;;;;;925.38;60.17;;;14.50;77.00;;;;;;5061537;28;20388;-83
2022/05/05 13:16:33;;;;;;;715.95;40.42;;;14.70;76.50;;;;;;5053961;28;20451;-82
2022/05/05 13:19:02;;;;;;;723.60;55.38;;;14.50;73.90;;;;;;5053984;28;20450;-82
2022/05/05 13:21:33;;;;;;;223.77;14.60;;;14.30;72.30;;;;;;5052606;28;20398;-83
2022/05/05 13:24:01;;;;;;;926.35;78.57;;;14.30;77.70;;;;;;5053772;28;20862;-83
2022/05/05 13:26:28;;;;;;;700.92;54.60;;;14.30;73.30;;;;;;5066472;28;21001;-83
2022/05/05 13:28:56;;;;;;;265.43;17.77;;;14.50;74.10;;;;;;5073816;28;20392;-83